Time;durP1;ratioP1;P1;durP2;ratioP2;P2;SDS_P1;SDS_P2;PMS_P1;PMS_P2;Temp;Humidity;BMP_temperature;BMP_pressure;BME280_temperature;BME280_humidity;BME280_pressure;Samples;Min_cycle;Max_cycle;Signal;HPM_P1;HPM_P2
2022/12/18 00:01:05;;;;;;;121.13;34.78;;;;;;;-145.18;100.00;46728.75;4973580;28;20570;-75
2022/12/18 00:03:35;;;;;;;121.18;35.88;;;;;;;-145.18;100.00;46726.81;4993949;28;20498;-75
2022/12/18 00:06:01;;;;;;;128.15;33.22;;;;;;;-145.18;100.00;46728.75;5010598;28;20069;-75
2022/12/18 00:08:27;;;;;;;126.88;32.10;;;;;;;-145.18;100.00;46736.56;5010909;28;20121;-75
2022/12/18 00:10:53;;;;;;;129.38;32.33;;;;;;;-145.18;100.00;46732.66;5010278;28;20042;-75
2022/12/18 00:13:18;;;;;;;120.17;33.33;;;;;;;-145.18;100.00;46734.63;5009141;28;20045;-75
2022/12/18 00:15:43;;;;;;;125.13;36.60;;;;;;;-145.18;100.00;46732.66;5003010;28;20045;-75
2022/12/18 00:18:09;;;;;;;112.47;34.13;;;;;;;-145.18;100.00;46734.63;4990583;28;20049;-75
2022/12/18 00:20:39;;;;;;;116.30;34.63;;;;;;;-145.18;100.00;46736.56;4991212;28;20069;-75
2022/12/18 00:23:06;;;;;;;127.55;36.50;;;;;;;-145.18;100.00;46732.66;4990666;28;20034;-75
2022/12/18 00:25:35;;;;;;;109.38;34.53;;;;;;;-145.18;100.00;46722.91;4991090;28;20038;-75
2022/12/18 00:28:04;;;;;;;112.57;33.08;;;;;;;-145.18;100.00;46734.63;4998695;28;20076;-75
2022/12/18 00:30:30;;;;;;;110.45;31.60;;;;;;;-145.18;100.00;46726.81;5009959;28;20034;-75
2022/12/18 00:32:56;;;;;;;121.80;35.43;;;;;;;-145.18;100.00;46728.75;5009980;28;20088;-75
2022/12/18 00:35:22;;;;;;;129.30;36.38;;;;;;;-145.18;100.00;46736.56;5010198;28;20033;-75
2022/12/18 00:37:47;;;;;;;132.07;34.73;;;;;;;-145.18;100.00;46736.56;5010225;28;20628;-75
2022/12/18 00:40:13;;;;;;;123.80;33.70;;;;;;;-145.18;100.00;46726.81;4997552;28;20501;-75
2022/12/18 00:42:56;;;;;;;96.73;30.40;;;;;;;-145.18;100.00;46728.75;4990537;28;20443;-75
2022/12/18 00:45:27;;;;;;;104.28;30.30;;;;;;;-145.18;100.00;46732.66;4990826;28;20042;-75
2022/12/18 00:47:53;;;;;;;129.02;31.67;;;;;;;-145.18;100.00;46728.75;4990395;28;20092;-74
2022/12/18 00:50:19;;;;;;;136.37;32.70;;;;;;;-145.18;100.00;46732.66;4990578;28;20035;-75
2022/12/18 00:52:44;;;;;;;101.18;31.88;;;;;;;-145.18;100.00;46728.75;5005449;28;20045;-75
2022/12/18 00:55:10;;;;;;;96.93;31.43;;;;;;;-145.18;100.00;46726.81;5010096;28;20034;-75
2022/12/18 00:57:35;;;;;;;87.40;30.87;;;;;;;-145.18;100.00;46732.66;5010247;28;20422;-75
2022/12/18 01:00:01;;;;;;;89.27;29.43;;;;;;;-145.18;100.00;46734.63;5009821;28;20518;-75
2022/12/18 01:02:26;;;;;;;84.87;29.33;;;;;;;-145.18;100.00;46726.81;5009882;28;20026;-75
2022/12/18 01:04:52;;;;;;;88.33;31.00;;;;;;;-145.18;100.00;46732.66;4995926;28;20070;-75
2022/12/18 01:07:17;;;;;;;98.03;29.57;;;;;;;-145.18;100.00;46726.81;4990532;28;20471;-75
2022/12/18 01:09:43;;;;;;;124.43;33.53;;;;;;;-145.18;100.00;46732.66;4990471;28;20061;-75
2022/12/18 01:12:08;;;;;;;91.07;30.57;;;;;;;-145.18;100.00;46734.63;4990237;28;20117;-75
2022/12/18 01:14:33;;;;;;;102.67;30.63;;;;;;;-145.18;100.00;46734.63;4990477;28;20121;-75
2022/12/18 01:16:59;;;;;;;104.93;30.83;;;;;;;-145.18;100.00;46728.75;4985541;28;20045;-75
2022/12/18 01:19:24;;;;;;;108.83;30.57;;;;;;;-145.18;100.00;46736.56;5010034;28;20092;-75
2022/12/18 01:21:50;;;;;;;84.57;28.73;;;;;;;-145.18;100.00;46734.63;5010058;28;20080;-75
2022/12/18 01:24:15;;;;;;;82.63;29.53;;;;;;;-145.18;100.00;46734.63;5009304;28;20120;-75
2022/12/18 01:26:41;;;;;;;85.90;28.97;;;;;;;-145.18;100.00;46732.66;5009735;28;20435;-76
2022/12/18 01:29:06;;;;;;;94.20;30.87;;;;;;;-145.18;100.00;46734.63;4997124;28;20070;-75
2022/12/18 01:31:33;;;;;;;100.20;31.10;;;;;;;-145.18;100.00;46728.75;4990140;28;20031;-75
2022/12/18 01:34:03;;;;;;;93.28;31.45;;;;;;;-145.18;100.00;46734.63;4990465;28;20038;-75
2022/12/18 01:36:31;;;;;;;91.03;29.17;;;;;;;-145.18;100.00;46726.81;4990111;28;20030;-75
2022/12/18 01:38:59;;;;;;;85.72;28.52;;;;;;;-145.18;100.00;46728.75;4990076;28;20027;-75
2022/12/18 01:42:01;;;;;;;91.72;30.05;;;;;;;-145.18;100.00;46726.81;5004099;28;20756;-75
2022/12/18 01:44:50;;;;;;;95.88;30.90;;;;;;;-145.18;100.00;46732.66;5009714;28;20042;-75
2022/12/18 01:47:47;;;;;;;98.43;30.75;;;;;;;-145.18;100.00;46732.66;5012828;28;20521;-75
2022/12/18 01:50:23;;;;;;;;;;;;;;;-145.18;100.00;46722.91;5007667;28;20127;-75
2022/12/18 01:52:55;;;;;;;73.80;27.00;;;;;;;-145.18;100.00;46722.91;5002765;28;20418;-75
2022/12/18 01:55:23;;;;;;;85.88;28.70;;;;;;;-145.18;100.00;46726.81;4993719;28;20038;-75
2022/12/18 01:57:53;;;;;;;95.03;30.77;;;;;;;-145.18;100.00;46734.63;4993369;28;20042;-75
2022/12/18 02:00:20;;;;;;;79.47;28.65;;;;;;;-145.18;100.00;46732.66;4993533;28;20041;-75
2022/12/18 02:02:46;;;;;;;84.55;30.17;;;;;;;-145.18;100.00;46728.75;4992776;28;20042;-75
2022/12/18 02:05:16;;;;;;;82.30;29.65;;;;;;;-145.18;100.00;46728.75;5003900;28;20046;-75
2022/12/18 02:07:53;;;;;;;78.38;28.98;;;;;;;-145.18;100.00;46734.63;5012522;28;20554;-75
2022/12/18 02:10:39;;;;;;;86.38;29.48;;;;;;;-145.18;100.00;46732.66;5013049;28;20104;-74
2022/12/18 02:13:36;;;;;;;70.28;27.48;;;;;;;-145.18;100.00;46734.63;5011709;28;20046;-75
2022/12/18 02:16:23;;;;;;;74.32;27.48;;;;;;;-145.18;100.00;46732.66;5001609;28;20668;-75
2022/12/18 02:18:54;;;;;;;86.78;28.90;;;;;;;-145.18;100.00;46736.56;4993330;28;20038;-75
2022/12/18 02:21:43;;;;;;;81.15;27.85;;;;;;;-145.18;100.00;46738.53;4992996;28;20059;-75
2022/12/18 02:24:11;;;;;;;75.78;27.77;;;;;;;-145.18;100.00;46736.56;4992902;28;20047;-75
2022/12/18 02:26:53;;;;;;;73.72;27.17;;;;;;;-145.18;100.00;46734.63;4992743;28;20026;-75
2022/12/18 02:29:51;;;;;;;65.28;27.15;;;;;;;-145.18;100.00;46738.53;5004130;28;20088;-75
2022/12/18 02:32:24;;;;;;;68.57;25.80;;;;;;;-145.18;100.00;46732.66;5011821;28;20100;-74
2022/12/18 02:34:51;;;;;;;67.00;25.17;;;;;;;-145.18;100.00;46734.63;5011638;28;20045;-74
2022/12/18 02:37:18;;;;;;;75.43;27.42;;;;;;;-145.18;100.00;46732.66;5003868;28;20029;-74
2022/12/18 02:39:46;;;;;;;67.97;25.70;;;;;;;-145.18;100.00;46726.81;4992691;28;20040;-74
2022/12/18 02:42:12;;;;;;;80.60;28.88;;;;;;;-145.18;100.00;46728.75;5008865;28;20072;-73
2022/12/18 02:44:49;;;;;;;73.93;27.42;;;;;;;-145.18;100.00;46726.81;5010663;28;20076;-74
2022/12/18 02:47:17;;;;;;;76.90;27.10;;;;;;;-145.18;100.00;46724.84;5012097;28;20034;-73
2022/12/18 02:49:59;;;;;;;73.57;28.10;;;;;;;-145.18;100.00;46724.84;5012217;28;20087;-74
2022/12/18 02:52:31;;;;;;;68.57;26.15;;;;;;;-145.18;100.00;46722.91;5010776;28;20138;-74
2022/12/18 02:54:56;;;;;;;70.80;25.88;;;;;;;-145.18;100.00;46711.19;4992166;28;20104;-74
2022/12/18 02:57:34;;;;;;;73.03;27.63;;;;;;;-145.18;100.00;46701.41;4992511;28;20022;-73
2022/12/18 03:00:00;;;;;;;67.80;24.02;;;;;;;-145.18;100.00;46685.78;4992335;28;20070;-74
2022/12/18 03:02:34;;;;;;;70.30;25.47;;;;;;;-145.18;100.00;46679.94;5228755;22;20076;-74
2022/12/18 03:05:20;;;;;;;70.28;25.50;;;;;;;-145.18;100.00;46668.22;5025858;28;20038;-74
2022/12/18 03:08:05;;;;;;;70.10;25.13;;;;;;;-145.18;100.00;46660.41;5010733;28;20029;-74
2022/12/18 03:10:37;;;;;;;62.47;23.93;;;;;;;-145.18;100.00;46650.63;5012562;28;20022;-74
2022/12/18 03:13:08;;;;;;;72.75;25.77;;;;;;;-145.18;100.00;46638.91;5012064;28;20279;-74
2022/12/18 03:15:46;;;;;;;64.43;25.05;;;;;;;-145.18;100.00;46660.41;5011827;28;20502;-74
2022/12/18 03:18:35;;;;;;;71.32;26.88;;;;;;;-145.18;100.00;46660.41;5011601;28;20490;-74
2022/12/18 03:21:04;;;;;;;64.68;24.38;;;;;;;-145.18;100.00;46660.41;5011678;28;20080;-74
2022/12/18 03:23:36;;;;;;;67.70;25.75;;;;;;;-145.18;100.00;46658.44;5011759;28;20105;-75
2022/12/18 03:26:09;;;;;;;59.63;24.00;;;;;;;-145.18;100.00;46660.41;5012192;28;20088;-75
2022/12/18 03:28:39;;;;;;;69.57;24.73;;;;;;;-145.18;100.00;46656.50;5013507;28;20040;-75
2022/12/18 03:31:09;;;;;;;67.78;24.95;;;;;;;-145.18;100.00;46658.44;5025132;28;20451;-75
2022/12/18 03:33:45;;;;;;;58.78;23.38;;;;;;;-145.18;100.00;46660.41;5011530;28;20033;-75
2022/12/18 03:36:11;;;;;;;59.63;23.52;;;;;;;-145.18;100.00;46658.44;5011697;28;20129;-75
2022/12/18 03:38:36;;;;;;;55.13;22.97;;;;;;;-145.18;100.00;46656.50;5013422;28;20113;-74
2022/12/18 03:41:23;;;;;;;58.67;23.00;;;;;;;-145.18;100.00;46660.41;5031319;28;20333;-75
2022/12/18 03:44:09;;;;;;;57.00;21.77;;;;;;;-145.18;100.00;46658.44;5030926;28;20557;-75
2022/12/18 03:47:15;;;;;;;57.78;22.40;;;;;;;-145.18;100.00;46660.41;5019252;28;20021;-75
2022/12/18 03:50:06;;;;;;;56.78;22.67;;;;;;;-145.18;100.00;46660.41;4998336;28;20052;-75
2022/12/18 03:52:40;;;;;;;60.35;24.00;;;;;;;-145.18;100.00;46660.41;5020117;28;20249;-75
2022/12/18 03:55:08;;;;;;;56.72;24.00;;;;;;;-145.18;100.00;46660.41;5030935;28;20156;-75
2022/12/18 03:57:33;;;;;;;65.85;23.63;;;;;;;-145.18;100.00;46660.41;5030832;28;20037;-75
2022/12/18 04:00:06;;;;;;;58.10;22.27;;;;;;;-145.18;100.00;46660.41;5017763;28;20057;-75
2022/12/18 04:02:33;;;;;;;55.40;20.98;;;;;;;-145.18;100.00;46660.41;5021993;28;20611;-75
2022/12/18 04:05:02;;;;;;;52.47;21.80;;;;;;;-145.18;100.00;46660.41;5047295;28;20128;-75
2022/12/18 04:07:28;;;;;;;53.30;20.90;;;;;;;-145.18;100.00;46633.06;5030018;28;20029;-74
2022/12/18 04:09:58;;;;;;;54.13;22.77;;;;;;;-145.18;100.00;46660.41;5030235;28;20405;-75
2022/12/18 04:12:26;;;;;;;51.90;21.38;;;;;;;-145.18;100.00;46636.94;5030605;28;20129;-75
2022/12/18 04:14:51;;;;;;;51.75;20.67;;;;;;;-145.18;100.00;46635.00;5030503;28;20473;-75
2022/12/18 04:17:17;;;;;;;48.70;21.03;;;;;;;-145.18;100.00;46636.94;5030492;28;20025;-75
2022/12/18 04:19:42;;;;;;;51.30;21.63;;;;;;;-145.18;100.00;46636.94;5030097;28;20025;-75
2022/12/18 04:22:10;;;;;;;50.20;19.60;;;;;;;-145.18;100.00;46635.00;5030443;28;20040;-75
2022/12/18 04:24:35;;;;;;;48.67;20.83;;;;;;;-145.18;100.00;46636.94;5030590;28;20116;-75
2022/12/18 04:27:01;;;;;;;47.83;20.33;;;;;;;-145.18;100.00;46638.91;5029944;28;20125;-75
2022/12/18 04:29:26;;;;;;;53.43;21.20;;;;;;;-145.18;100.00;46640.88;5012423;28;20030;-75
2022/12/18 04:31:51;;;;;;;46.47;20.03;;;;;;;-145.18;100.00;46646.72;5030092;28;20025;-75
2022/12/18 04:34:17;;;;;;;49.47;18.97;;;;;;;-145.18;100.00;46648.69;5030486;28;20131;-75
2022/12/18 04:36:42;;;;;;;47.73;20.80;;;;;;;-145.18;100.00;46650.63;5030177;28;20026;-74
2022/12/18 04:39:07;;;;;;;54.70;20.77;;;;;;;-145.18;100.00;46660.41;5029840;28;20480;-74
2022/12/18 04:41:33;;;;;;;47.73;20.50;;;;;;;-145.18;100.00;46656.50;5030247;28;20025;-74
2022/12/18 04:43:58;;;;;;;46.53;20.13;;;;;;;-145.18;100.00;46650.63;5029804;28;20172;-74
2022/12/18 04:46:23;;;;;;;45.00;18.10;;;;;;;-145.18;100.00;46654.53;5030338;28;20036;-74
2022/12/18 04:48:49;;;;;;;45.10;19.30;;;;;;;-145.18;100.00;46658.44;5029624;28;20033;-74
2022/12/18 04:51:14;;;;;;;50.77;21.23;;;;;;;-145.18;100.00;46664.31;5030240;28;20385;-74
2022/12/18 04:53:39;;;;;;;42.03;19.17;;;;;;;-145.18;100.00;46660.41;5029740;28;20384;-74
2022/12/18 04:56:10;;;;;;;48.03;19.87;;;;;;;-145.18;100.00;46668.22;5012591;28;20036;-74
2022/12/18 04:58:36;;;;;;;50.47;20.10;;;;;;;-145.18;100.00;46666.25;5029397;28;20489;-74
2022/12/18 05:01:03;;;;;;;46.75;20.25;;;;;;;-145.18;100.00;46668.22;5029643;28;20041;-74
2022/12/18 05:03:28;;;;;;;43.90;19.27;;;;;;;-145.18;100.00;46668.22;5029673;28;20061;-74
2022/12/18 05:05:53;;;;;;;45.20;17.87;;;;;;;-145.18;100.00;46668.22;5029975;28;20498;-74
2022/12/18 05:08:19;;;;;;;43.53;18.60;;;;;;;-145.18;100.00;46677.97;5029734;28;20037;-74
2022/12/18 05:10:44;;;;;;;55.43;20.00;;;;;;;-145.18;100.00;46674.06;5029862;28;20062;-74
2022/12/18 05:13:10;;;;;;;41.10;18.77;;;;;;;-145.18;100.00;46676.03;5029825;28;20100;-74
2022/12/18 05:15:35;;;;;;;43.67;18.83;;;;;;;-145.18;100.00;46676.03;5030071;28;20030;-74
2022/12/18 05:18:02;;;;;;;44.50;17.73;;;;;;;-145.18;100.00;46681.88;5011759;28;20673;-73
2022/12/18 05:20:28;;;;;;;45.03;17.67;;;;;;;-145.18;100.00;46679.94;5033850;28;20029;-73
2022/12/18 05:22:53;;;;;;;40.70;18.63;;;;;;;-145.18;100.00;46672.13;5033094;28;20034;-73
2022/12/18 05:25:20;;;;;;;46.73;18.13;;;;;;;-145.18;100.00;46676.03;5033874;28;20408;-74
2022/12/18 05:27:45;;;;;;;43.05;18.33;;;;;;;-145.18;100.00;46679.94;5033094;28;20036;-75
2022/12/18 05:30:12;;;;;;;41.60;18.53;;;;;;;-145.18;100.00;46681.88;5033444;28;20037;-75
2022/12/18 05:32:38;;;;;;;43.00;18.02;;;;;;;-145.18;100.00;46685.78;5033156;28;20048;-74
2022/12/18 05:35:05;;;;;;;42.00;18.60;;;;;;;-145.18;100.00;46685.78;5033622;28;20404;-74
2022/12/18 05:37:30;;;;;;;45.80;18.40;;;;;;;-145.18;100.00;46685.78;5032679;28;20599;-74
2022/12/18 05:39:56;;;;;;;39.87;16.67;;;;;;;-145.18;100.00;46689.69;5033242;28;20119;-74
2022/12/18 05:42:21;;;;;;;42.10;18.40;;;;;;;-145.18;100.00;46691.66;5033306;28;20096;-74
2022/12/18 05:44:47;;;;;;;46.97;19.30;;;;;;;-145.18;100.00;46695.56;5033087;28;20604;-74
2022/12/18 05:47:12;;;;;;;43.13;18.47;;;;;;;-145.18;100.00;46693.59;5032777;28;20041;-74
2022/12/18 05:49:38;;;;;;;41.17;17.10;;;;;;;-145.18;100.00;46693.59;5015412;28;20489;-74
2022/12/18 05:52:03;;;;;;;41.03;17.77;;;;;;;-145.18;100.00;46699.47;5033346;28;20069;-74
2022/12/18 05:54:28;;;;;;;43.07;17.87;;;;;;;-145.18;100.00;46693.59;5033230;28;20033;-74
2022/12/18 05:56:54;;;;;;;46.27;17.67;;;;;;;-145.18;100.00;46685.78;5032699;28;20065;-74
2022/12/18 05:59:19;;;;;;;40.33;17.47;;;;;;;-145.18;100.00;46685.78;5033182;28;20033;-74
2022/12/18 06:01:45;;;;;;;42.37;16.90;;;;;;;-145.18;100.00;46695.56;5032593;28;20041;-75
2022/12/18 06:04:11;;;;;;;43.53;17.52;;;;;;;-145.18;100.00;46695.56;5032608;28;20048;-74
2022/12/18 06:06:36;;;;;;;40.43;17.77;;;;;;;-145.18;100.00;46681.88;5032649;28;20520;-74
2022/12/18 06:09:08;;;;;;;41.23;17.30;;;;;;;-145.18;100.00;46695.56;5032178;28;20045;-74
2022/12/18 06:11:35;;;;;;;41.10;17.50;;;;;;;-145.18;100.00;46697.50;5032927;28;20037;-74
2022/12/18 06:14:01;;;;;;;40.33;16.52;;;;;;;-145.18;100.00;46695.56;5032144;28;20394;-74
2022/12/18 06:16:27;;;;;;;35.40;18.23;;;;;;;-145.18;100.00;46705.31;5032688;28;20106;-73
2022/12/18 06:18:53;;;;;;;33.40;16.17;;;;;;;-145.18;100.00;46697.50;5012508;28;20065;-73
2022/12/18 06:21:19;;;;;;;37.37;15.77;;;;;;;-145.18;100.00;46701.41;5013179;28;20562;-74
2022/12/18 06:23:44;;;;;;;40.03;17.17;;;;;;;-145.18;100.00;46709.22;5012244;28;20029;-74
2022/12/18 06:26:11;;;;;;;36.10;16.00;;;;;;;-145.18;100.00;46701.41;5020923;28;20040;-74
2022/12/18 06:28:37;;;;;;;37.08;15.38;;;;;;;-145.18;100.00;46699.47;5014140;28;20411;-73
2022/12/18 06:31:04;;;;;;;35.60;16.20;;;;;;;-145.18;100.00;46709.22;5031987;28;20104;-74
2022/12/18 06:33:29;;;;;;;38.13;16.20;;;;;;;-145.18;100.00;46699.47;5032329;28;20098;-74
2022/12/18 06:36:01;;;;;;;33.90;15.37;;;;;;;-145.18;100.00;46701.41;5032224;28;20037;-74
2022/12/18 06:38:26;;;;;;;38.28;16.67;;;;;;;-145.18;100.00;46691.66;5031610;28;20397;-74
2022/12/18 06:40:52;;;;;;;37.67;16.30;;;;;;;-145.18;100.00;46691.66;5026092;28;20041;-74
2022/12/18 06:43:17;;;;;;;38.23;16.10;;;;;;;-145.18;100.00;46695.56;5031173;28;20033;-75
2022/12/18 06:45:43;;;;;;;38.27;15.67;;;;;;;-145.18;100.00;46687.75;5029820;28;20431;-75
2022/12/18 06:48:08;;;;;;;37.13;15.07;;;;;;;-145.18;100.00;46687.75;5030277;28;20064;-75
2022/12/18 06:50:33;;;;;;;33.07;14.93;;;;;;;-145.18;100.00;46687.75;5030934;28;20037;-74
2022/12/18 06:52:59;;;;;;;38.77;16.63;;;;;;;-145.18;100.00;46693.59;5031418;28;20030;-75
2022/12/18 06:55:24;;;;;;;36.17;16.03;;;;;;;-145.18;100.00;46681.88;5032136;28;20112;-75
2022/12/18 06:57:50;;;;;;;40.37;17.33;;;;;;;-145.18;100.00;46677.97;5031182;28;20032;-75
2022/12/18 07:00:15;;;;;;;34.13;15.67;;;;;;;-145.18;100.00;46685.78;5032252;28;20030;-74
2022/12/18 07:02:41;;;;;;;29.90;14.93;;;;;;;-145.18;100.00;46683.84;5031324;28;20539;-75
2022/12/18 07:05:06;;;;;;;36.37;15.77;;;;;;;-145.18;100.00;46683.84;5031649;28;20045;-75
2022/12/18 07:07:34;;;;;;;41.43;16.07;;;;;;;-145.18;100.00;46676.03;5030265;28;20176;-74
2022/12/18 07:09:59;;;;;;;38.42;15.80;;;;;;;-145.18;100.00;46681.88;5031502;28;20432;-75
2022/12/18 07:12:24;;;;;;;36.73;16.20;;;;;;;-145.18;100.00;46681.88;5031648;28;20033;-75
2022/12/18 07:14:50;;;;;;;38.13;17.37;;;;;;;-145.18;100.00;46683.84;5031459;28;20033;-75
2022/12/18 07:17:15;;;;;;;39.90;17.50;;;;;;;-145.18;100.00;46676.03;5031341;28;20043;-75
2022/12/18 07:19:40;;;;;;;42.30;17.20;;;;;;;-145.18;100.00;46674.06;5022367;28;20112;-75
2022/12/18 07:22:06;;;;;;;37.83;14.73;;;;;;;-145.18;100.00;46679.94;5031476;28;20033;-74
2022/12/18 07:24:33;;;;;;;33.90;15.17;;;;;;;-145.18;100.00;46679.94;5031177;28;20117;-75
2022/12/18 07:26:58;;;;;;;35.97;15.32;;;;;;;-145.18;100.00;46679.94;5016872;28;20057;-74
2022/12/18 07:29:24;;;;;;;36.87;15.10;;;;;;;-145.18;100.00;46672.13;5020751;28;20131;-74
2022/12/18 07:31:49;;;;;;;31.37;15.23;;;;;;;-145.18;100.00;46674.06;5030844;28;20046;-75
2022/12/18 07:34:15;;;;;;;34.70;15.83;;;;;;;-145.18;100.00;46679.94;5017976;28;20025;-74
2022/12/18 07:36:40;;;;;;;29.30;14.77;;;;;;;-145.18;100.00;46672.13;5029257;28;20498;-75
2022/12/18 07:39:06;;;;;;;36.77;16.27;;;;;;;-145.18;100.00;46674.06;5030327;28;20033;-74
2022/12/18 07:41:31;;;;;;;34.60;15.83;;;;;;;-145.18;100.00;46676.03;5029868;28;20025;-74
2022/12/18 07:43:56;;;;;;;42.27;17.20;;;;;;;-145.18;100.00;46674.06;5026080;28;20486;-74
2022/12/18 07:46:22;;;;;;;36.07;15.83;;;;;;;-145.18;100.00;46660.41;5030955;28;20112;-74
2022/12/18 07:48:48;;;;;;;40.50;16.33;;;;;;;-145.18;100.00;46662.34;5017811;28;20026;-74
2022/12/18 07:51:14;;;;;;;34.63;15.27;;;;;;;-145.18;100.00;46674.06;5016575;28;20052;-74
2022/12/18 07:53:40;;;;;;;37.57;16.07;;;;;;;-145.18;100.00;46670.16;5030396;28;20075;-75
2022/12/18 07:56:10;;;;;;;40.60;17.87;;;;;;;-145.18;100.00;46668.22;5030506;28;20039;-75
2022/12/18 07:58:37;;;;;;;40.17;18.08;;;;;;;-145.18;100.00;46660.41;5018554;28;20057;-75
2022/12/18 08:01:04;;;;;;;39.78;16.23;;;;;;;-145.18;100.00;46664.31;5030039;28;20041;-75
2022/12/18 08:03:29;;;;;;;35.17;17.02;;;;;;;-145.18;100.00;46666.25;5017402;28;20461;-75
2022/12/18 08:05:59;;;;;;;36.70;16.07;;;;;;;-145.18;100.00;46654.53;5011842;28;20136;-75
2022/12/18 08:08:25;;;;;;;33.75;16.23;;;;;;;-145.18;100.00;46668.22;5029830;28;20440;-75
2022/12/18 08:10:50;;;;;;;39.87;16.63;;;;;;;-145.18;100.00;46664.31;5029670;28;20045;-74
2022/12/18 08:13:16;;;;;;;39.67;17.30;;;;;;;-145.18;100.00;46670.16;5030134;28;20041;-73
2022/12/18 08:15:41;;;;;;;38.13;17.60;;;;;;;-145.18;100.00;46672.13;5020235;28;20586;-72
2022/12/18 08:18:06;;;;;;;39.53;17.20;;;;;;;-145.18;100.00;46676.03;5028625;28;20065;-72
2022/12/18 08:20:32;;;;;;;35.60;16.60;;;;;;;-145.18;100.00;46670.16;5028394;28;20080;-72
2022/12/18 08:22:57;;;;;;;38.57;17.77;;;;;;;-145.18;100.00;46670.16;5028927;28;20065;-71
2022/12/18 08:25:23;;;;;;;36.87;17.40;;;;;;;-145.18;100.00;46677.97;5029872;28;20045;-72
2022/12/18 08:27:48;;;;;;;37.17;17.07;;;;;;;-145.18;100.00;46676.03;5025178;28;21321;-72
2022/12/18 08:30:14;;;;;;;36.17;16.03;;;;;;;-145.18;100.00;46679.94;5030137;28;20029;-72
2022/12/18 08:32:39;;;;;;;36.80;15.73;;;;;;;-145.18;100.00;46674.06;5029445;28;20040;-72
2022/12/18 08:35:05;;;;;;;40.10;17.73;;;;;;;-145.18;100.00;46689.69;5029739;28;20120;-72
2022/12/18 08:37:30;;;;;;;36.63;17.97;;;;;;;-145.18;100.00;46677.97;5030211;28;20037;-71
2022/12/18 08:39:55;;;;;;;39.70;18.43;;;;;;;-145.18;100.00;46681.88;5011671;28;20584;-71
2022/12/18 08:45:05;;;;;;;35.63;16.77;;;;;;;-145.18;100.00;46689.69;5012972;28;20552;-71
2022/12/18 08:47:30;;;;;;;36.87;17.13;;;;;;;-145.18;100.00;46693.59;5021166;28;20049;-71
2022/12/18 08:49:56;;;;;;;40.67;16.73;;;;;;;-145.18;100.00;46693.59;5020649;28;20046;-71
2022/12/18 08:52:21;;;;;;;39.60;16.03;;;;;;;-145.18;100.00;46681.88;5022964;28;20040;-71
2022/12/18 08:54:46;;;;;;;34.53;16.37;;;;;;;-145.18;100.00;46689.69;5029615;28;20034;-71
2022/12/18 08:57:12;;;;;;;36.87;17.97;;;;;;;-145.18;100.00;46679.94;5026972;28;20482;-71
2022/12/18 08:59:37;;;;;;;39.53;17.90;;;;;;;-145.18;100.00;46695.56;5026943;28;20666;-71
2022/12/18 09:02:02;;;;;;;34.83;17.87;;;;;;;-145.18;100.00;46695.56;5026507;28;20406;-71
2022/12/18 09:04:28;;;;;;;40.47;16.47;;;;;;;-145.18;100.00;46695.56;5025317;28;20367;-71
2022/12/18 09:06:53;;;;;;;37.00;16.33;;;;;;;-145.18;100.00;46695.56;5027735;28;20045;-71
2022/12/18 09:09:19;;;;;;;37.53;17.77;;;;;;;-145.18;100.00;46697.50;5028208;28;20517;-71
2022/12/18 09:11:44;;;;;;;33.80;17.30;;;;;;;-145.18;100.00;46705.31;5015379;28;20497;-71
2022/12/18 09:14:10;;;;;;;35.57;17.03;;;;;;;-145.18;100.00;46701.41;5019099;28;20044;-71
2022/12/18 09:16:35;;;;;;;32.60;15.70;;;;;;;-145.18;100.00;46701.41;5025099;28;20382;-71
2022/12/18 09:19:04;;;;;;;34.73;17.20;;;;;;;-145.18;100.00;46707.28;5033078;28;20152;-71
2022/12/18 09:21:32;;;;;;;38.63;16.92;;;;;;;-145.18;100.00;46711.19;5033180;28;20099;-71
2022/12/18 09:23:57;;;;;;;37.25;18.35;;;;;;;-145.18;100.00;46709.22;5030070;28;20045;-71
2022/12/18 09:26:24;;;;;;;44.10;18.50;;;;;;;-145.18;100.00;46711.19;5033483;28;20036;-71
2022/12/18 09:28:50;;;;;;;41.03;17.83;;;;;;;-145.18;100.00;46715.09;5032280;28;20397;-71
2022/12/18 09:31:17;;;;;;;36.63;17.97;;;;;;;-145.18;100.00;46707.28;5023647;28;20041;-71
2022/12/18 09:33:43;;;;;;;38.80;17.63;;;;;;;-145.18;100.00;46717.03;5027791;28;20060;-71
2022/12/18 09:36:11;;;;;;;36.03;17.40;;;;;;;-145.18;100.00;46707.28;5033425;28;20474;-71
2022/12/18 09:38:36;;;;;;;34.38;18.02;;;;;;;-145.18;100.00;46717.03;5032578;28;20036;-71
2022/12/18 09:41:37;;;;;;;37.83;17.67;;;;;;;-145.18;100.00;46707.28;5014924;28;20124;-71
2022/12/18 09:44:11;;;;;;;36.47;16.42;;;;;;;-145.18;100.00;46707.28;5032193;28;20068;-71
2022/12/18 09:46:40;;;;;;;38.25;18.20;;;;;;;-145.18;100.00;46722.91;5043834;28;20075;-71
2022/12/18 09:49:15;;;;;;;35.72;16.92;;;;;;;-145.18;100.00;46719.00;5036088;28;20025;-71
2022/12/18 09:51:54;;;;;;;29.50;13.65;;;;;;;-145.18;100.00;46722.91;5030214;28;20482;-72
2022/12/18 09:54:33;;;;;;;37.50;16.67;;;;;;;-145.18;100.00;46722.91;5022626;28;20056;-72
2022/12/18 09:56:58;;;;;;;36.80;17.70;;;;;;;-145.18;100.00;46730.72;5032583;28;20030;-72
2022/12/18 09:59:30;;;;;;;35.03;16.97;;;;;;;-145.18;100.00;46732.66;5032874;28;20040;-72
2022/12/18 10:01:56;;;;;;;42.95;19.08;;;;;;;-145.18;100.00;46724.84;5031632;28;20038;-72
2022/12/18 10:04:23;;;;;;;32.20;16.73;;;;;;;-145.18;100.00;46724.84;5031795;28;20293;-72
2022/12/18 10:07:10;;;;;;;35.88;16.95;;;;;;;-145.18;100.00;46719.00;5031986;28;20091;-73
2022/12/18 10:09:58;;;;;;;38.80;17.98;;;;;;;-145.18;100.00;46726.81;5032606;28;20555;-73
2022/12/18 10:12:34;;;;;;;38.42;18.15;;;;;;;-145.18;100.00;46738.53;5029468;28;20029;-73
2022/12/18 10:15:15;;;;;;;37.78;19.38;;;;;;;-145.18;100.00;46722.91;4994804;28;20042;-73
2022/12/18 10:18:05;;;;;;;37.13;17.65;;;;;;;-145.18;100.00;46742.44;5030856;28;20494;-73
2022/12/18 10:20:57;;;;;;;35.90;17.52;;;;;;;-145.18;100.00;46746.34;5032071;28;20025;-73
2022/12/18 10:23:33;;;;;;;39.13;18.10;;;;;;;-145.18;100.00;46752.19;5031250;28;20045;-73
2022/12/18 10:26:05;;;;;;;38.33;17.20;;;;;;;-145.18;100.00;46748.28;5012384;28;20079;-73
2022/12/18 10:28:32;;;;;;;37.92;18.08;;;;;;;-145.18;100.00;46746.34;5023391;28;20021;-73
2022/12/18 10:30:58;;;;;;;31.02;15.95;;;;;;;-145.18;100.00;46738.53;5031927;28;20041;-73
2022/12/18 10:33:28;;;;;;;32.40;16.45;;;;;;;-145.18;100.00;46750.25;5032168;28;20096;-73
2022/12/18 10:35:54;;;;;;;39.15;17.48;;;;;;;-145.18;100.00;46758.06;5032235;28;20041;-73
2022/12/18 10:38:24;;;;;;;37.30;17.27;;;;;;;-145.18;100.00;46760.00;5032114;28;20509;-73
2022/12/18 10:40:57;;;;;;;32.95;15.90;;;;;;;-145.18;100.00;46754.16;5031622;28;20029;-73
2022/12/18 10:43:30;;;;;;;36.75;18.02;;;;;;;-145.18;100.00;46769.78;5032053;28;20025;-73
2022/12/18 10:46:14;;;;;;;39.50;16.45;;;;;;;-145.18;100.00;46758.06;5031990;28;20033;-73
2022/12/18 10:48:48;;;;;;;38.85;17.35;;;;;;;-145.18;100.00;46763.91;5031458;28;20016;-73
2022/12/18 10:51:27;;;;;;;31.42;16.30;;;;;;;-145.18;100.00;46758.06;5031999;28;20044;-73
2022/12/18 10:54:05;;;;;;;36.47;17.20;;;;;;;-145.18;100.00;46765.88;5031425;28;20044;-73
2022/12/18 10:56:33;;;;;;;36.97;17.23;;;;;;;-145.18;100.00;46760.00;5031895;28;20029;-73
2022/12/18 10:59:04;;;;;;;33.38;16.60;;;;;;;-145.18;100.00;46750.25;5031546;28;20025;-73
2022/12/18 11:01:47;;;;;;;40.47;17.90;;;;;;;-145.18;100.00;46760.00;5031201;28;20041;-74
2022/12/18 11:04:27;;;;;;;34.63;16.98;;;;;;;-145.18;100.00;46756.09;5031267;28;20073;-73
2022/12/18 11:06:56;;;;;;;36.85;16.67;;;;;;;-145.18;100.00;46760.00;5031403;28;20116;-73